createdAt,value
2022-11-27T00:00:52.540Z,7.93
2022-11-27T00:03:20.502Z,7.97
2022-11-27T00:05:53.770Z,7.73
2022-11-27T00:08:21.664Z,8.10
2022-11-27T00:10:49.649Z,8.93
2022-11-27T00:13:17.865Z,9.40
2022-11-27T00:15:47.254Z,9.17
2022-11-27T00:18:15.337Z,8.67
2022-11-27T00:20:43.227Z,8.60
2022-11-27T00:23:11.090Z,8.57
2022-11-27T00:25:39.107Z,7.33
2022-11-27T00:28:07.054Z,8.37
2022-11-27T00:30:34.913Z,8.10
2022-11-27T00:33:04.265Z,8.03
2022-11-27T00:35:32.112Z,8.03
2022-11-27T00:37:59.991Z,8.13
2022-11-27T00:40:27.943Z,7.70
2022-11-27T00:42:55.868Z,8.80
2022-11-27T00:45:24.014Z,7.67
2022-11-27T00:47:51.949Z,8.60
2022-11-27T00:50:21.225Z,9.23
2022-11-27T00:52:49.095Z,8.60
2022-11-27T00:55:17.018Z,8.20
2022-11-27T00:57:45.282Z,7.93
2022-11-27T01:00:14.651Z,8.00
2022-11-27T01:02:42.691Z,8.23
2022-11-27T01:05:11.079Z,7.90
2022-11-27T01:07:40.380Z,8.53
2022-11-27T01:10:09.654Z,8.60
2022-11-27T01:12:37.563Z,7.90
2022-11-27T01:15:06.201Z,8.60
2022-11-27T01:17:34.145Z,9.20
2022-11-27T01:20:02.061Z,9.20
2022-11-27T01:22:29.967Z,8.07
2022-11-27T01:24:59.260Z,7.43
2022-11-27T01:27:27.119Z,8.43
2022-11-27T01:29:55.020Z,8.10
2022-11-27T01:32:22.906Z,7.53
2022-11-27T01:34:50.872Z,7.70
2022-11-27T01:37:18.908Z,7.50
2022-11-27T01:39:46.844Z,8.03
2022-11-27T01:42:16.264Z,7.57
2022-11-27T01:44:59.399Z,8.43
2022-11-27T01:47:37.403Z,7.43
2022-11-27T01:50:20.389Z,7.73
2022-11-27T01:52:52.921Z,7.10
2022-11-27T01:55:28.884Z,8.10
2022-11-27T01:58:01.737Z,8.50
2022-11-27T02:00:30.659Z,8.83
2022-11-27T02:02:58.614Z,7.53
2022-11-27T02:05:29.216Z,7.63
2022-11-27T02:08:00.423Z,7.80
2022-11-27T02:10:39.958Z,7.67
2022-11-27T02:13:14.584Z,7.77
2022-11-27T02:15:48.021Z,7.83
2022-11-27T02:18:23.455Z,8.50
2022-11-27T02:20:59.383Z,7.13
2022-11-27T02:23:52.257Z,8.77
2022-11-27T02:26:56.630Z,9.27
2022-11-27T02:29:29.358Z,7.93
2022-11-27T02:32:00.555Z,7.80
2022-11-27T02:34:35.564Z,7.43
2022-11-27T02:37:10.819Z,7.23
2022-11-27T02:39:45.742Z,8.67
2022-11-27T02:42:18.911Z,9.00
2022-11-27T02:44:52.046Z,7.67
2022-11-27T02:47:21.945Z,8.20
2022-11-27T02:49:52.237Z,8.03
2022-11-27T02:52:21.377Z,7.80
2022-11-27T02:54:53.082Z,8.40
2022-11-27T02:57:22.119Z,7.53
2022-11-27T02:59:52.616Z,8.80
2022-11-27T03:02:24.085Z,7.53
2022-11-27T03:04:54.400Z,8.63
2022-11-27T03:07:27.774Z,7.07
2022-11-27T03:10:00.774Z,8.07
2022-11-27T03:12:28.955Z,8.03
2022-11-27T03:14:58.391Z,8.17
2022-11-27T03:17:37.362Z,7.63
2022-11-27T03:20:12.102Z,7.77
2022-11-27T03:22:40.170Z,8.13
2022-11-27T03:25:08.859Z,9.10
2022-11-27T03:27:42.084Z,8.40
2022-11-27T03:30:15.538Z,8.77
2022-11-27T03:32:44.217Z,7.80
2022-11-27T03:35:16.285Z,8.90
2022-11-27T03:37:44.452Z,8.30
2022-11-27T03:40:14.095Z,7.93
2022-11-27T03:42:53.640Z,7.70
2022-11-27T03:45:33.159Z,7.63
2022-11-27T03:48:15.291Z,8.40
2022-11-27T03:50:54.911Z,8.10
2022-11-27T03:53:30.620Z,8.73
2022-11-27T03:56:10.179Z,8.07
2022-11-27T03:58:42.317Z,8.00
2022-11-27T04:01:14.925Z,7.87
2022-11-27T04:03:42.972Z,8.90
2022-11-27T04:06:11.791Z,7.57
2022-11-27T04:08:40.176Z,8.57
2022-11-27T04:11:08.903Z,8.53
2022-11-27T04:13:37.137Z,8.63
2022-11-27T04:16:05.506Z,8.00
2022-11-27T04:18:35.069Z,7.70
2022-11-27T04:21:03.209Z,7.77
2022-11-27T04:23:31.128Z,7.53
2022-11-27T04:25:59.089Z,8.23
2022-11-27T04:28:27.120Z,8.80
2022-11-27T04:30:55.424Z,7.67
2022-11-27T04:33:24.177Z,8.00
2022-11-27T04:35:53.519Z,7.73
2022-11-27T04:38:22.605Z,8.47
2022-11-27T04:40:52.700Z,9.77
2022-11-27T04:43:20.686Z,9.20
2022-11-27T04:45:48.625Z,8.77
2022-11-27T04:48:16.769Z,10.03
2022-11-27T04:50:44.696Z,9.80
2022-11-27T04:53:16.320Z,9.13
2022-11-27T04:55:44.264Z,9.23
2022-11-27T04:58:15.282Z,9.53
2022-11-27T05:00:43.202Z,10.50
2022-11-27T05:03:12.562Z,8.73
2022-11-27T05:05:40.539Z,8.73
2022-11-27T05:08:08.495Z,9.53
2022-11-27T05:10:37.820Z,8.67
2022-11-27T05:13:05.766Z,8.57
2022-11-27T05:15:33.686Z,8.93
2022-11-27T05:18:01.558Z,8.43
2022-11-27T05:20:29.459Z,8.27
2022-11-27T05:22:57.315Z,8.97
2022-11-27T05:25:25.250Z,8.13
2022-11-27T05:27:54.542Z,7.63
2022-11-27T05:30:22.408Z,7.03
2022-11-27T05:32:50.296Z,8.07
2022-11-27T05:35:18.345Z,8.80
2022-11-27T05:37:46.214Z,8.53
2022-11-27T05:40:14.933Z,8.90
2022-11-27T05:42:42.937Z,8.27
2022-11-27T05:45:12.796Z,7.57
2022-11-27T05:47:40.743Z,7.73
2022-11-27T05:50:09.458Z,7.70
2022-11-27T05:52:37.378Z,7.77
2022-11-27T05:55:05.928Z,7.93
2022-11-27T05:57:33.801Z,7.13
2022-11-27T06:00:01.731Z,6.97
2022-11-27T06:02:31.459Z,7.87
2022-11-27T06:04:59.476Z,8.63
2022-11-27T06:07:27.429Z,8.97
2022-11-27T06:09:55.400Z,9.93
2022-11-27T06:12:23.420Z,9.87
2022-11-27T06:14:51.351Z,10.73
2022-11-27T06:17:19.314Z,10.17
2022-11-27T06:19:48.669Z,9.23
2022-11-27T06:22:16.835Z,7.93
2022-11-27T06:24:44.808Z,9.03
2022-11-27T06:27:12.769Z,9.80
2022-11-27T06:29:40.686Z,8.63
2022-11-27T06:32:08.706Z,9.43
2022-11-27T06:34:36.864Z,8.40
2022-11-27T06:37:10.399Z,8.40
2022-11-27T06:39:40.873Z,8.43
2022-11-27T06:42:08.834Z,7.73
2022-11-27T06:44:36.767Z,7.83
2022-11-27T06:47:04.724Z,7.57
2022-11-27T06:49:32.686Z,7.77
2022-11-27T06:52:00.583Z,8.50
2022-11-27T06:54:29.876Z,7.80
2022-11-27T06:56:58.456Z,7.63
2022-11-27T06:59:26.380Z,7.23
2022-11-27T07:01:54.387Z,7.23
2022-11-27T07:04:22.407Z,7.67
2022-11-27T07:06:50.530Z,8.03
2022-11-27T07:09:19.042Z,8.67
2022-11-27T07:11:48.421Z,7.40
2022-11-27T07:14:16.402Z,7.77
2022-11-27T07:16:44.346Z,8.27
2022-11-27T07:19:12.394Z,7.87
2022-11-27T07:21:40.808Z,8.23
2022-11-27T07:24:09.273Z,8.00
2022-11-27T07:26:37.181Z,8.17
2022-11-27T07:29:06.413Z,7.53
2022-11-27T07:31:34.543Z,7.63
2022-11-27T07:34:03.035Z,8.00
2022-11-27T07:36:32.910Z,7.40
2022-11-27T07:39:00.870Z,7.97
2022-11-27T07:41:33.749Z,8.30
2022-11-27T07:44:02.277Z,8.13
2022-11-27T07:46:31.658Z,8.47
2022-11-27T07:49:00.687Z,8.80
2022-11-27T07:51:28.923Z,9.10
2022-11-27T07:53:56.923Z,8.77
2022-11-27T07:56:24.913Z,8.03
2022-11-27T07:58:52.858Z,8.50
2022-11-27T08:01:21.747Z,8.43
2022-11-27T08:03:51.386Z,7.63
2022-11-27T08:06:21.530Z,7.57
2022-11-27T08:08:50.507Z,8.47
2022-11-27T08:11:21.501Z,9.07
2022-11-27T08:13:49.805Z,8.80
2022-11-27T08:16:18.034Z,8.63
2022-11-27T08:18:45.991Z,8.40
2022-11-27T08:21:15.533Z,8.10
2022-11-27T08:23:43.521Z,7.40
2022-11-27T08:26:14.833Z,9.43
2022-11-27T08:28:43.505Z,8.20
2022-11-27T08:31:13.539Z,7.33
2022-11-27T08:33:42.134Z,7.60
2022-11-27T08:36:16.376Z,8.67
2022-11-27T08:38:47.266Z,11.37
2022-11-27T08:41:15.330Z,9.47
2022-11-27T08:43:43.297Z,8.33
2022-11-27T08:46:12.268Z,6.80
2022-11-27T08:48:40.535Z,6.77
2022-11-27T08:51:11.023Z,7.73
2022-11-27T08:53:39.320Z,8.07
2022-11-27T08:56:11.037Z,7.93
2022-11-27T08:58:41.123Z,7.13
2022-11-27T09:01:33.532Z,8.53
2022-11-27T09:04:01.669Z,7.53
2022-11-27T09:06:31.774Z,8.20
2022-11-27T09:09:01.124Z,7.97
2022-11-27T09:11:32.349Z,8.17
2022-11-27T09:14:00.711Z,7.63
2022-11-27T09:16:30.207Z,7.33
2022-11-27T09:18:59.017Z,8.00
2022-11-27T09:21:28.743Z,7.77
2022-11-27T09:23:57.626Z,7.40
2022-11-27T09:26:26.640Z,7.87
2022-11-27T09:28:57.049Z,7.87
2022-11-27T09:31:26.045Z,7.57
2022-11-27T09:33:54.041Z,7.60
2022-11-27T09:36:23.848Z,7.93
2022-11-27T09:38:52.519Z,8.20
2022-11-27T09:41:38.706Z,7.47
2022-11-27T09:44:28.715Z,7.23
2022-11-27T09:47:01.056Z,7.63
2022-11-27T09:49:33.768Z,7.63
2022-11-27T09:52:05.200Z,7.17
2022-11-27T09:54:38.702Z,8.60
2022-11-27T09:57:07.920Z,7.40
2022-11-27T09:59:44.359Z,7.50
2022-11-27T10:02:19.161Z,7.53
2022-11-27T10:05:12.313Z,8.67
2022-11-27T10:07:43.140Z,6.90
2022-11-27T10:10:26.837Z,7.43
2022-11-27T10:13:05.406Z,6.90
2022-11-27T10:15:43.340Z,7.43
2022-11-27T10:18:15.649Z,6.90
2022-11-27T10:20:47.246Z,6.40
2022-11-27T10:23:25.890Z,6.83
2022-11-27T10:26:00.162Z,7.23
2022-11-27T10:28:36.532Z,7.07
2022-11-27T10:31:13.101Z,7.50
2022-11-27T10:33:44.815Z,8.27
2022-11-27T10:36:19.039Z,7.47
2022-11-27T10:38:49.140Z,6.80
2022-11-27T10:41:48.210Z,7.27
2022-11-27T10:44:28.574Z,7.17
2022-11-27T10:47:02.617Z,6.87
2022-11-27T10:49:30.862Z,6.53
2022-11-27T10:51:58.905Z,7.80
2022-11-27T10:54:29.521Z,6.57
2022-11-27T10:57:09.744Z,7.17
2022-11-27T10:59:44.453Z,7.37
2022-11-27T11:02:30.147Z,7.60
2022-11-27T11:05:24.221Z,6.60
2022-11-27T11:07:59.289Z,6.43
2022-11-27T11:10:31.277Z,7.00
2022-11-27T11:13:17.640Z,6.57
2022-11-27T11:15:55.301Z,6.67
2022-11-27T11:18:26.656Z,7.00
2022-11-27T11:20:56.681Z,6.37
2022-11-27T11:23:30.890Z,6.80
2022-11-27T11:26:03.766Z,7.43
2022-11-27T11:28:38.014Z,6.97
2022-11-27T11:31:10.472Z,6.37
2022-11-27T11:33:49.792Z,5.93
2022-11-27T11:36:17.780Z,6.53
2022-11-27T11:38:47.932Z,5.80
2022-11-27T11:41:18.124Z,7.03
2022-11-27T11:43:56.649Z,6.07
2022-11-27T11:46:28.486Z,5.93
2022-11-27T11:49:03.881Z,6.33
2022-11-27T11:51:56.571Z,6.30
2022-11-27T11:54:39.801Z,6.33
2022-11-27T11:57:32.603Z,5.70
2022-11-27T12:00:05.439Z,5.60
2022-11-27T12:02:42.877Z,6.53
2022-11-27T12:05:25.538Z,6.00
2022-11-27T12:08:18.169Z,6.90
2022-11-27T12:10:59.306Z,6.33
2022-11-27T12:13:40.908Z,6.33
2022-11-27T12:16:16.721Z,6.43
2022-11-27T12:18:57.947Z,6.73
2022-11-27T12:21:39.054Z,6.63
2022-11-27T12:24:34.646Z,6.03
2022-11-27T12:27:16.793Z,6.03
2022-11-27T12:30:15.030Z,6.43
2022-11-27T12:33:19.244Z,6.57
2022-11-27T12:35:53.511Z,6.20
2022-11-27T12:38:39.617Z,6.67
2022-11-27T12:41:24.721Z,6.23
2022-11-27T12:43:59.983Z,6.37
2022-11-27T12:46:35.139Z,6.63
2022-11-27T12:49:07.048Z,7.47
2022-11-27T12:51:40.685Z,6.70
2022-11-27T12:54:15.430Z,6.57
2022-11-27T12:56:48.394Z,6.80
2022-11-27T12:59:22.420Z,5.93
2022-11-27T13:02:02.563Z,6.27
2022-11-27T13:04:38.472Z,6.37
2022-11-27T13:07:11.955Z,6.50
2022-11-27T13:09:50.942Z,6.23
2022-11-27T13:12:27.350Z,5.70
2022-11-27T13:15:04.168Z,7.03
2022-11-27T13:17:40.468Z,7.17
2022-11-27T13:20:17.538Z,5.30
2022-11-27T13:22:46.806Z,6.10
2022-11-27T13:25:16.421Z,6.80
2022-11-27T13:27:47.843Z,5.90
2022-11-27T13:30:24.091Z,6.37
2022-11-27T13:32:54.846Z,6.70
2022-11-27T13:35:28.028Z,5.87
2022-11-27T13:38:05.946Z,5.93
2022-11-27T13:40:40.703Z,6.03
2022-11-27T13:43:21.608Z,5.67
2022-11-27T13:45:51.998Z,6.03
2022-11-27T13:48:34.108Z,6.87
2022-11-27T13:51:02.530Z,5.70
2022-11-27T13:53:38.674Z,6.47
2022-11-27T13:56:09.280Z,6.43
2022-11-27T13:58:39.043Z,5.43
2022-11-27T14:01:16.444Z,6.13
2022-11-27T14:03:44.934Z,5.73
2022-11-27T14:06:19.424Z,6.20
2022-11-27T14:08:59.624Z,6.33
2022-11-27T14:11:40.210Z,7.30
2022-11-27T14:14:19.179Z,6.67
2022-11-27T14:16:58.706Z,5.90
2022-11-27T14:19:34.468Z,6.90
2022-11-27T14:22:03.366Z,6.43
2022-11-27T14:24:43.895Z,6.50
2022-11-27T14:27:22.571Z,6.67
2022-11-27T14:29:51.115Z,6.47
2022-11-27T14:32:21.205Z,7.07
2022-11-27T14:34:49.780Z,6.43
2022-11-27T14:37:25.653Z,6.93
2022-11-27T14:39:54.308Z,6.80
2022-11-27T14:42:29.110Z,6.57
2022-11-27T14:45:05.706Z,6.67
2022-11-27T14:47:33.714Z,6.43
2022-11-27T14:50:03.571Z,6.50
2022-11-27T14:52:31.984Z,7.13
2022-11-27T14:55:01.754Z,8.30
2022-11-27T14:57:31.658Z,7.60
2022-11-27T15:00:05.998Z,7.17
2022-11-27T15:02:34.003Z,6.53
2022-11-27T15:05:06.752Z,6.57
2022-11-27T15:07:45.333Z,6.67
2022-11-27T15:10:31.461Z,6.57
2022-11-27T15:13:02.542Z,6.80
2022-11-27T15:15:34.671Z,5.83
2022-11-27T15:18:05.974Z,7.40
2022-11-27T15:20:41.910Z,7.43
2022-11-27T15:23:18.037Z,6.50
2022-11-27T15:25:48.868Z,8.27
2022-11-27T15:28:36.534Z,6.33
2022-11-27T15:31:20.658Z,6.73
2022-11-27T15:33:58.723Z,5.97
2022-11-27T15:36:28.682Z,6.93
2022-11-27T15:39:21.778Z,6.10
2022-11-27T15:41:56.847Z,7.27
2022-11-27T15:44:29.569Z,7.03
2022-11-27T15:47:01.738Z,6.97
2022-11-27T15:49:32.025Z,6.97
2022-11-27T15:52:01.342Z,6.40
2022-11-27T15:54:30.487Z,7.20
2022-11-27T15:56:59.849Z,6.10
2022-11-27T15:59:31.225Z,7.23
2022-11-27T16:02:00.804Z,6.63
2022-11-27T16:04:30.857Z,6.97
2022-11-27T16:07:00.032Z,6.93
2022-11-27T16:09:29.777Z,6.93
2022-11-27T16:12:01.704Z,7.30
2022-11-27T16:14:33.070Z,6.03
2022-11-27T16:17:02.719Z,5.80
2022-11-27T16:19:32.240Z,6.80
2022-11-27T16:22:02.163Z,6.07
2022-11-27T16:24:31.939Z,6.53
2022-11-27T16:27:01.329Z,7.90
2022-11-27T16:29:32.319Z,6.90
2022-11-27T16:32:02.388Z,7.37
2022-11-27T16:34:32.092Z,6.50
2022-11-27T16:37:01.565Z,8.27
2022-11-27T16:39:31.114Z,7.10
2022-11-27T16:42:00.608Z,6.00
2022-11-27T16:44:30.312Z,7.13
2022-11-27T16:47:01.299Z,7.30
2022-11-27T16:49:31.090Z,8.30
2022-11-27T16:52:00.704Z,7.53
2022-11-27T16:54:32.866Z,8.17
2022-11-27T16:57:02.424Z,6.97
2022-11-27T16:59:32.279Z,7.67
2022-11-27T17:02:03.952Z,6.97
2022-11-27T17:04:33.933Z,7.50
2022-11-27T17:07:03.699Z,7.13
2022-11-27T17:09:33.438Z,7.27
2022-11-27T17:12:02.960Z,7.07
2022-11-27T17:14:32.662Z,6.67
2022-11-27T17:17:14.221Z,7.60
2022-11-27T17:19:44.179Z,6.80
2022-11-27T17:22:14.327Z,7.83
2022-11-27T17:24:44.290Z,6.63
2022-11-27T17:27:16.006Z,6.53
2022-11-27T17:29:45.837Z,7.50
2022-11-27T17:32:20.494Z,7.17
2022-11-27T17:34:51.550Z,7.07
2022-11-27T17:37:21.443Z,7.90
2022-11-27T17:39:50.966Z,7.97
2022-11-27T17:42:23.066Z,6.63
2022-11-27T17:44:52.272Z,6.33
2022-11-27T17:47:24.199Z,6.97
2022-11-27T17:49:54.029Z,6.90
2022-11-27T17:52:24.137Z,6.87
2022-11-27T17:54:54.036Z,6.60
2022-11-27T17:57:23.895Z,7.87
2022-11-27T17:59:53.686Z,7.90
2022-11-27T18:02:25.266Z,6.83
2022-11-27T18:04:55.067Z,6.13
2022-11-27T18:07:24.913Z,7.67
2022-11-27T18:09:54.762Z,8.30
2022-11-27T18:12:27.373Z,7.70
2022-11-27T18:15:01.071Z,7.43
2022-11-27T18:17:33.058Z,8.07
2022-11-27T18:20:03.845Z,6.63
2022-11-27T18:22:33.981Z,5.83
2022-11-27T18:25:03.833Z,6.00
2022-11-27T18:27:34.571Z,6.83
2022-11-27T18:30:05.648Z,6.50
2022-11-27T18:32:38.633Z,7.17
2022-11-27T18:35:09.309Z,7.47
2022-11-27T18:37:39.337Z,8.07
2022-11-27T18:40:11.096Z,6.53
2022-11-27T18:42:41.003Z,7.43
2022-11-27T18:45:31.316Z,7.60
2022-11-27T18:48:03.526Z,6.67
2022-11-27T18:50:33.578Z,5.97
2022-11-27T18:53:04.831Z,6.77
2022-11-27T18:55:37.632Z,6.70
2022-11-27T18:58:07.708Z,6.80
2022-11-27T19:00:37.770Z,6.30
2022-11-27T19:03:09.330Z,6.97
2022-11-27T19:05:39.335Z,7.00
2022-11-27T19:08:10.367Z,7.57
2022-11-27T19:10:40.432Z,7.13
2022-11-27T19:13:11.777Z,6.30
2022-11-27T19:15:42.763Z,6.47
2022-11-27T19:18:19.010Z,6.77
2022-11-27T19:20:49.496Z,7.93
2022-11-27T19:23:19.629Z,7.43
2022-11-27T19:25:49.588Z,7.30
2022-11-27T19:28:19.595Z,7.03
2022-11-27T19:30:49.533Z,6.80
2022-11-27T19:33:21.175Z,6.90
2022-11-27T19:35:51.053Z,7.43
2022-11-27T19:38:20.926Z,6.70
2022-11-27T19:40:50.986Z,7.37
2022-11-27T19:43:20.894Z,6.97
2022-11-27T19:45:48.953Z,8.20
2022-11-27T19:48:23.407Z,7.07
2022-11-27T19:50:55.486Z,8.03
2022-11-27T19:53:26.074Z,7.93
2022-11-27T19:55:56.256Z,7.87
2022-11-27T19:58:26.241Z,7.97
2022-11-27T20:00:56.241Z,8.33
2022-11-27T20:03:29.917Z,8.00
2022-11-27T20:06:05.166Z,8.70
2022-11-27T20:08:35.862Z,8.00
2022-11-27T20:11:08.160Z,8.43
2022-11-27T20:13:38.253Z,7.20
2022-11-27T20:16:10.085Z,8.23
2022-11-27T20:18:44.394Z,8.00
2022-11-27T20:21:17.089Z,8.07
2022-11-27T20:23:48.619Z,7.77
2022-11-27T20:26:21.202Z,7.33
2022-11-27T20:28:54.788Z,7.13
2022-11-27T20:31:29.037Z,8.30
2022-11-27T20:34:02.873Z,8.47
2022-11-27T20:36:34.182Z,8.03
2022-11-27T20:39:04.558Z,6.82
2022-11-27T20:41:37.854Z,7.03
2022-11-27T20:44:08.064Z,7.53
2022-11-27T20:46:38.007Z,7.50
2022-11-27T20:49:10.684Z,6.97
2022-11-27T20:51:40.784Z,8.60
2022-11-27T20:54:14.475Z,7.40
2022-11-27T20:56:45.638Z,7.13
2022-11-27T20:59:15.346Z,9.17
2022-11-27T21:01:44.787Z,7.83
2022-11-27T21:04:23.702Z,9.00
2022-11-27T21:06:53.027Z,7.93
2022-11-27T21:09:22.502Z,7.47
2022-11-27T21:11:51.542Z,7.53
2022-11-27T21:14:20.404Z,7.10
2022-11-27T21:16:50.863Z,7.97
2022-11-27T21:19:22.641Z,7.60
2022-11-27T21:21:52.550Z,7.50
2022-11-27T21:24:25.717Z,8.07
2022-11-27T21:26:54.461Z,8.00
2022-11-27T21:29:25.580Z,7.33
2022-11-27T21:31:55.432Z,7.20
2022-11-27T21:34:25.320Z,7.03
2022-11-27T21:36:53.265Z,7.60
2022-11-27T21:39:21.715Z,7.17
2022-11-27T21:41:51.590Z,7.67
2022-11-27T21:44:19.601Z,7.40
2022-11-27T21:46:48.140Z,6.73
2022-11-27T21:49:17.507Z,7.27
2022-11-27T21:51:47.142Z,6.83
2022-11-27T21:54:16.010Z,7.30
2022-11-27T21:56:44.039Z,7.40
2022-11-27T21:59:14.636Z,7.30
2022-11-27T22:01:45.244Z,7.90
2022-11-27T22:04:14.759Z,7.03
2022-11-27T22:06:45.152Z,7.13
2022-11-27T22:09:16.010Z,6.83
2022-11-27T22:11:45.878Z,7.23
2022-11-27T22:14:15.390Z,6.50
2022-11-27T22:16:45.869Z,7.43
2022-11-27T22:19:15.524Z,7.47
2022-11-27T22:21:43.852Z,6.63
2022-11-27T22:24:18.458Z,6.50
2022-11-27T22:26:49.456Z,6.87
2022-11-27T22:29:17.692Z,7.20
2022-11-27T22:31:45.808Z,7.00
2022-11-27T22:34:14.143Z,7.20
2022-11-27T22:36:42.054Z,6.67
2022-11-27T22:39:11.566Z,7.37
2022-11-27T22:41:41.684Z,7.80
2022-11-27T22:44:15.242Z,7.77
2022-11-27T22:46:43.535Z,7.03
2022-11-27T22:49:13.925Z,7.63
2022-11-27T22:51:42.298Z,7.60
2022-11-27T22:54:13.777Z,7.70
2022-11-27T22:56:41.787Z,7.57
2022-11-27T22:59:31.561Z,8.10
2022-11-27T23:02:00.210Z,7.87
2022-11-27T23:04:28.530Z,7.93
2022-11-27T23:06:56.724Z,8.07
2022-11-27T23:09:24.900Z,9.20
2022-11-27T23:11:53.017Z,8.83
2022-11-27T23:14:22.366Z,7.67
2022-11-27T23:16:50.465Z,7.73
2022-11-27T23:19:18.620Z,8.03
2022-11-27T23:21:46.591Z,7.30
2022-11-27T23:24:16.053Z,7.53
2022-11-27T23:26:45.945Z,7.83
2022-11-27T23:29:15.078Z,9.67
2022-11-27T23:31:44.621Z,7.87
2022-11-27T23:34:15.981Z,8.03
2022-11-27T23:36:44.392Z,7.77
2022-11-27T23:39:14.207Z,7.27
2022-11-27T23:41:42.692Z,8.37
2022-11-27T23:44:11.060Z,8.03
2022-11-27T23:46:39.015Z,8.83
2022-11-27T23:49:08.445Z,8.30
2022-11-27T23:51:36.738Z,7.20
2022-11-27T23:54:09.155Z,7.23
2022-11-27T23:56:37.696Z,7.00
2022-11-27T23:59:06.049Z,9.27
